sensor_id;sensor_type;location;lat;lon;timestamp;pressure;altitude;pressure_sealevel;temperature;humidity
6433;BME280;3249;42.690;23.260;2023-01-08T00:01:50;94896.59;;;1.23;100.00
6433;BME280;3249;42.690;23.260;2023-01-08T00:04:19;94888.53;;;1.10;100.00
6433;BME280;3249;42.690;23.260;2023-01-08T00:06:48;94892.16;;;1.08;100.00
6433;BME280;3249;42.690;23.260;2023-01-08T00:09:17;94889.13;;;0.87;100.00
6433;BME280;3249;42.690;23.260;2023-01-08T00:11:46;94900.72;;;1.07;100.00
6433;BME280;3249;42.690;23.260;2023-01-08T00:14:16;94899.16;;;0.79;100.00
6433;BME280;3249;42.690;23.260;2023-01-08T00:16:45;94892.03;;;0.65;100.00
6433;BME280;3249;42.690;23.260;2023-01-08T00:19:16;94885.50;;;0.62;100.00
6433;BME280;3249;42.690;23.260;2023-01-08T00:21:46;94889.31;;;0.76;100.00
6433;BME280;3249;42.690;23.260;2023-01-08T00:24:15;94887.81;;;0.83;100.00
6433;BME280;3249;42.690;23.260;2023-01-08T00:26:45;94884.94;;;0.41;100.00
6433;BME280;3249;42.690;23.260;2023-01-08T00:29:14;94879.56;;;0.27;100.00
6433;BME280;3249;42.690;23.260;2023-01-08T00:31:43;94878.22;;;0.50;100.00
6433;BME280;3249;42.690;23.260;2023-01-08T00:34:12;94882.16;;;0.62;100.00
6433;BME280;3249;42.690;23.260;2023-01-08T00:36:44;94884.38;;;0.74;100.00
6433;BME280;3249;42.690;23.260;2023-01-08T00:39:13;94885.09;;;0.67;100.00
6433;BME280;3249;42.690;23.260;2023-01-08T00:41:42;94885.75;;;0.69;100.00
6433;BME280;3249;42.690;23.260;2023-01-08T00:44:10;94889.06;;;0.42;100.00
6433;BME280;3249;42.690;23.260;2023-01-08T00:46:39;94883.72;;;0.18;100.00
6433;BME280;3249;42.690;23.260;2023-01-08T00:49:08;94847.06;;;0.22;100.00
6433;BME280;3249;42.690;23.260;2023-01-08T00:51:37;94887.13;;;0.54;100.00
6433;BME280;3249;42.690;23.260;2023-01-08T00:54:09;94888.88;;;0.26;100.00
6433;BME280;3249;42.690;23.260;2023-01-08T00:56:38;94892.72;;;0.30;100.00
6433;BME280;3249;42.690;23.260;2023-01-08T00:59:07;94889.25;;;0.31;100.00
6433;BME280;3249;42.690;23.260;2023-01-08T01:01:36;94890.47;;;0.54;100.00
6433;BME280;3249;42.690;23.260;2023-01-08T01:04:05;94892.13;;;0.73;100.00
6433;BME280;3249;42.690;23.260;2023-01-08T01:06:34;94889.03;;;0.79;100.00
6433;BME280;3249;42.690;23.260;2023-01-08T01:09:03;94888.34;;;0.50;100.00
6433;BME280;3249;42.690;23.260;2023-01-08T01:11:34;94893.72;;;0.47;100.00
6433;BME280;3249;42.690;23.260;2023-01-08T01:14:03;94889.88;;;0.43;100.00
6433;BME280;3249;42.690;23.260;2023-01-08T01:16:32;94888.63;;;0.20;100.00
6433;BME280;3249;42.690;23.260;2023-01-08T01:19:01;94886.13;;;0.10;100.00
6433;BME280;3249;42.690;23.260;2023-01-08T01:21:31;94885.84;;;0.23;100.00
6433;BME280;3249;42.690;23.260;2023-01-08T01:24:02;94881.09;;;0.00;100.00
6433;BME280;3249;42.690;23.260;2023-01-08T01:26:34;94879.03;;;-0.14;100.00
6433;BME280;3249;42.690;23.260;2023-01-08T01:29:03;94884.34;;;-0.17;100.00
6433;BME280;3249;42.690;23.260;2023-01-08T01:31:33;94876.78;;;-0.36;100.00
6433;BME280;3249;42.690;23.260;2023-01-08T01:34:02;94880.72;;;-0.05;100.00
6433;BME280;3249;42.690;23.260;2023-01-08T01:36:31;94878.03;;;0.07;100.00
6433;BME280;3249;42.690;23.260;2023-01-08T01:38:59;94874.16;;;0.12;100.00
6433;BME280;3249;42.690;23.260;2023-01-08T01:41:31;94870.38;;;-0.21;100.00
6433;BME280;3249;42.690;23.260;2023-01-08T01:47:06;94868.41;;;0.10;100.00
6433;BME280;3249;42.690;23.260;2023-01-08T01:49:38;94870.25;;;0.17;100.00
6433;BME280;3249;42.690;23.260;2023-01-08T01:52:10;94867.53;;;0.29;100.00
6433;BME280;3249;42.690;23.260;2023-01-08T01:54:39;94864.31;;;-0.01;100.00
6433;BME280;3249;42.690;23.260;2023-01-08T01:57:08;94863.78;;;-0.04;100.00
6433;BME280;3249;42.690;23.260;2023-01-08T01:59:38;94851.03;;;-0.12;100.00
6433;BME280;3249;42.690;23.260;2023-01-08T02:02:12;94856.44;;;-0.44;100.00
6433;BME280;3249;42.690;23.260;2023-01-08T02:04:41;94861.47;;;-0.25;100.00
6433;BME280;3249;42.690;23.260;2023-01-08T02:07:13;94856.03;;;-0.39;100.00
6433;BME280;3249;42.690;23.260;2023-01-08T02:09:47;94851.63;;;-0.28;100.00
6433;BME280;3249;42.690;23.260;2023-01-08T02:12:19;94856.09;;;-0.12;100.00
6433;BME280;3249;42.690;23.260;2023-01-08T02:14:58;94858.66;;;-0.22;100.00
6433;BME280;3249;42.690;23.260;2023-01-08T02:17:35;94851.31;;;-0.06;100.00
6433;BME280;3249;42.690;23.260;2023-01-08T02:20:10;94853.19;;;-0.17;100.00
6433;BME280;3249;42.690;23.260;2023-01-08T02:22:50;94844.44;;;-0.32;100.00
6433;BME280;3249;42.690;23.260;2023-01-08T02:25:30;94844.34;;;-0.50;100.00
6433;BME280;3249;42.690;23.260;2023-01-08T02:28:10;94842.09;;;-0.62;100.00
6433;BME280;3249;42.690;23.260;2023-01-08T02:30:40;94847.84;;;-0.79;100.00
6433;BME280;3249;42.690;23.260;2023-01-08T02:33:09;94838.53;;;-0.79;100.00
6433;BME280;3249;42.690;23.260;2023-01-08T02:35:40;94825.50;;;-0.74;100.00
6433;BME280;3249;42.690;23.260;2023-01-08T02:38:12;94839.94;;;-0.48;100.00
6433;BME280;3249;42.690;23.260;2023-01-08T02:40:51;94838.88;;;-0.55;100.00
6433;BME280;3249;42.690;23.260;2023-01-08T02:43:28;94839.66;;;-0.26;100.00
6433;BME280;3249;42.690;23.260;2023-01-08T02:46:01;94836.53;;;-0.10;100.00
6433;BME280;3249;42.690;23.260;2023-01-08T02:48:35;94830.38;;;-0.08;100.00
6433;BME280;3249;42.690;23.260;2023-01-08T02:51:11;94826.34;;;-0.37;100.00
6433;BME280;3249;42.690;23.260;2023-01-08T02:53:44;94824.97;;;-0.13;100.00
6433;BME280;3249;42.690;23.260;2023-01-08T02:56:16;94820.66;;;-0.03;100.00
6433;BME280;3249;42.690;23.260;2023-01-08T02:58:49;94830.00;;;-0.13;100.00
6433;BME280;3249;42.690;23.260;2023-01-08T03:01:21;94824.13;;;-0.50;100.00
6433;BME280;3249;42.690;23.260;2023-01-08T03:03:54;94830.09;;;-0.41;100.00
6433;BME280;3249;42.690;23.260;2023-01-08T03:06:25;94791.66;;;-0.45;100.00
6433;BME280;3249;42.690;23.260;2023-01-08T03:08:54;94834.28;;;-0.23;100.00
6433;BME280;3249;42.690;23.260;2023-01-08T03:11:27;94830.41;;;-0.54;100.00
6433;BME280;3249;42.690;23.260;2023-01-08T03:14:03;94823.69;;;-0.36;100.00
6433;BME280;3249;42.690;23.260;2023-01-08T03:16:36;94835.75;;;-0.20;100.00
6433;BME280;3249;42.690;23.260;2023-01-08T03:19:10;94836.94;;;-0.15;100.00
6433;BME280;3249;42.690;23.260;2023-01-08T03:21:41;94798.41;;;-0.36;100.00
6433;BME280;3249;42.690;23.260;2023-01-08T03:24:12;94845.69;;;0.00;100.00
6433;BME280;3249;42.690;23.260;2023-01-08T03:26:43;94845.03;;;-0.02;100.00
6433;BME280;3249;42.690;23.260;2023-01-08T03:29:18;94827.22;;;-0.10;100.00
6433;BME280;3249;42.690;23.260;2023-01-08T03:31:49;94829.41;;;0.03;100.00
6433;BME280;3249;42.690;23.260;2023-01-08T03:34:20;94837.44;;;-0.02;100.00
6433;BME280;3249;42.690;23.260;2023-01-08T03:36:53;94839.25;;;-0.31;100.00
6433;BME280;3249;42.690;23.260;2023-01-08T03:39:27;94832.81;;;-0.62;100.00
6433;BME280;3249;42.690;23.260;2023-01-08T03:42:00;94833.44;;;-0.50;100.00
6433;BME280;3249;42.690;23.260;2023-01-08T03:44:33;94834.03;;;-0.29;100.00
6433;BME280;3249;42.690;23.260;2023-01-08T03:47:03;94831.91;;;-0.24;100.00
6433;BME280;3249;42.690;23.260;2023-01-08T03:49:34;94828.97;;;-0.20;100.00
6433;BME280;3249;42.690;23.260;2023-01-08T03:52:03;94830.00;;;-0.13;100.00
6433;BME280;3249;42.690;23.260;2023-01-08T03:54:34;94830.00;;;-0.13;100.00
6433;BME280;3249;42.690;23.260;2023-01-08T03:57:04;94836.66;;;-0.12;100.00
6433;BME280;3249;42.690;23.260;2023-01-08T03:59:35;94833.63;;;-0.15;100.00
6433;BME280;3249;42.690;23.260;2023-01-08T04:02:04;94828.66;;;-0.07;100.00
6433;BME280;3249;42.690;23.260;2023-01-08T04:04:33;94806.50;;;-0.32;100.00
6433;BME280;3249;42.690;23.260;2023-01-08T04:07:02;94817.78;;;-0.17;100.00
6433;BME280;3249;42.690;23.260;2023-01-08T04:09:31;94834.25;;;-0.04;100.00
6433;BME280;3249;42.690;23.260;2023-01-08T04:12:01;94837.47;;;-0.11;100.00
6433;BME280;3249;42.690;23.260;2023-01-08T04:14:29;94842.53;;;-0.11;100.00
6433;BME280;3249;42.690;23.260;2023-01-08T04:17:01;94838.06;;;-0.36;100.00
6433;BME280;3249;42.690;23.260;2023-01-08T04:19:30;94831.44;;;-0.56;100.00
6433;BME280;3249;42.690;23.260;2023-01-08T04:21:59;94821.78;;;-0.80;100.00
6433;BME280;3249;42.690;23.260;2023-01-08T04:24:28;94831.75;;;-0.69;100.00
6433;BME280;3249;42.690;23.260;2023-01-08T04:26:57;94835.16;;;-0.51;100.00
6433;BME280;3249;42.690;23.260;2023-01-08T04:29:26;94832.47;;;-0.40;100.00
6433;BME280;3249;42.690;23.260;2023-01-08T04:31:55;94841.84;;;-0.69;100.00
6433;BME280;3249;42.690;23.260;2023-01-08T04:34:26;94835.72;;;-0.76;100.00
6433;BME280;3249;42.690;23.260;2023-01-08T04:36:56;94834.38;;;-0.61;100.00
6433;BME280;3249;42.690;23.260;2023-01-08T04:39:25;94813.13;;;-0.68;100.00
6433;BME280;3249;42.690;23.260;2023-01-08T04:41:54;94839.84;;;-0.65;100.00
6433;BME280;3249;42.690;23.260;2023-01-08T04:44:23;94842.50;;;-0.67;100.00
6433;BME280;3249;42.690;23.260;2023-01-08T04:46:52;94833.97;;;-0.66;100.00
6433;BME280;3249;42.690;23.260;2023-01-08T04:49:21;94838.53;;;-0.98;100.00
6433;BME280;3249;42.690;23.260;2023-01-08T04:51:52;94836.00;;;-1.17;100.00
6433;BME280;3249;42.690;23.260;2023-01-08T04:54:21;94835.44;;;-1.30;100.00
6433;BME280;3249;42.690;23.260;2023-01-08T04:56:50;94832.53;;;-1.35;100.00
6433;BME280;3249;42.690;23.260;2023-01-08T04:59:19;94834.41;;;-1.27;100.00
6433;BME280;3249;42.690;23.260;2023-01-08T05:01:48;94839.31;;;-1.16;100.00
6433;BME280;3249;42.690;23.260;2023-01-08T05:04:17;94842.91;;;-1.00;100.00
6433;BME280;3249;42.690;23.260;2023-01-08T05:06:46;94848.47;;;-1.34;100.00
6433;BME280;3249;42.690;23.260;2023-01-08T05:09:18;94844.50;;;-1.27;100.00
6433;BME280;3249;42.690;23.260;2023-01-08T05:11:47;94850.63;;;-0.92;100.00
6433;BME280;3249;42.690;23.260;2023-01-08T05:14:16;94852.09;;;-0.89;100.00
6433;BME280;3249;42.690;23.260;2023-01-08T05:16:46;94841.72;;;-0.86;100.00
6433;BME280;3249;42.690;23.260;2023-01-08T05:19:15;94848.22;;;-0.93;100.00
6433;BME280;3249;42.690;23.260;2023-01-08T05:21:44;94839.59;;;-0.91;100.00
6433;BME280;3249;42.690;23.260;2023-01-08T05:24:13;94844.25;;;-0.96;100.00
6433;BME280;3249;42.690;23.260;2023-01-08T05:26:45;94840.25;;;-1.08;100.00
6433;BME280;3249;42.690;23.260;2023-01-08T05:29:14;94820.28;;;-1.30;100.00
6433;BME280;3249;42.690;23.260;2023-01-08T05:31:43;94846.88;;;-1.45;100.00
6433;BME280;3249;42.690;23.260;2023-01-08T05:34:13;94838.41;;;-1.15;100.00
6433;BME280;3249;42.690;23.260;2023-01-08T05:36:42;94842.47;;;-1.43;100.00
6433;BME280;3249;42.690;23.260;2023-01-08T05:39:11;94848.72;;;-1.37;100.00
6433;BME280;3249;42.690;23.260;2023-01-08T05:41:40;94842.97;;;-1.58;100.00
6433;BME280;3249;42.690;23.260;2023-01-08T05:44:11;94846.59;;;-1.32;100.00
6433;BME280;3249;42.690;23.260;2023-01-08T05:46:40;94847.41;;;-1.32;100.00
6433;BME280;3249;42.690;23.260;2023-01-08T05:49:09;94852.47;;;-1.32;100.00
6433;BME280;3249;42.690;23.260;2023-01-08T05:51:38;94847.03;;;-1.37;100.00
6433;BME280;3249;42.690;23.260;2023-01-08T05:54:07;94846.22;;;-1.28;100.00
6433;BME280;3249;42.690;23.260;2023-01-08T05:56:36;94843.31;;;-1.23;100.00
6433;BME280;3249;42.690;23.260;2023-01-08T05:59:05;94848.47;;;-1.06;100.00
6433;BME280;3249;42.690;23.260;2023-01-08T06:01:37;94845.03;;;-1.24;100.00
6433;BME280;3249;42.690;23.260;2023-01-08T06:04:06;94849.41;;;-1.26;100.00
6433;BME280;3249;42.690;23.260;2023-01-08T06:06:36;94854.34;;;-1.15;100.00
6433;BME280;3249;42.690;23.260;2023-01-08T06:09:05;94850.31;;;-1.36;100.00
6433;BME280;3249;42.690;23.260;2023-01-08T06:11:35;94860.22;;;-0.95;100.00
6433;BME280;3249;42.690;23.260;2023-01-08T06:14:04;94861.53;;;-0.91;100.00
6433;BME280;3249;42.690;23.260;2023-01-08T06:16:32;94859.28;;;-0.85;100.00
6433;BME280;3249;42.690;23.260;2023-01-08T06:19:04;94857.53;;;-0.75;100.00
6433;BME280;3249;42.690;23.260;2023-01-08T06:21:33;94860.34;;;-0.97;100.00
6433;BME280;3249;42.690;23.260;2023-01-08T06:24:03;94828.78;;;-1.40;100.00
6433;BME280;3249;42.690;23.260;2023-01-08T06:26:32;94858.84;;;-1.28;100.00
6433;BME280;3249;42.690;23.260;2023-01-08T06:29:01;94857.34;;;-1.49;100.00
6433;BME280;3249;42.690;23.260;2023-01-08T06:31:30;94858.91;;;-1.58;100.00
6433;BME280;3249;42.690;23.260;2023-01-08T06:33:59;94862.38;;;-1.49;100.00
6433;BME280;3249;42.690;23.260;2023-01-08T06:36:31;94866.56;;;-1.20;100.00
6433;BME280;3249;42.690;23.260;2023-01-08T06:39:00;94869.50;;;-0.96;100.00
6433;BME280;3249;42.690;23.260;2023-01-08T06:41:28;94872.94;;;-0.78;100.00
6433;BME280;3249;42.690;23.260;2023-01-08T06:43:57;94876.56;;;-0.61;100.00
6433;BME280;3249;42.690;23.260;2023-01-08T06:46:26;94879.19;;;-0.44;100.00
6433;BME280;3249;42.690;23.260;2023-01-08T06:48:55;94882.63;;;-0.26;100.00
6433;BME280;3249;42.690;23.260;2023-01-08T06:51:24;94882.47;;;-0.15;100.00
6433;BME280;3249;42.690;23.260;2023-01-08T06:53:56;94887.81;;;-0.18;100.00
6433;BME280;3249;42.690;23.260;2023-01-08T06:56:25;94890.84;;;-0.05;100.00
6433;BME280;3249;42.690;23.260;2023-01-08T06:58:54;94881.47;;;0.05;100.00
6433;BME280;3249;42.690;23.260;2023-01-08T07:01:22;94887.69;;;0.21;100.00
6433;BME280;3249;42.690;23.260;2023-01-08T07:03:51;94892.19;;;0.36;100.00
6433;BME280;3249;42.690;23.260;2023-01-08T07:06:21;94887.03;;;0.46;100.00
6433;BME280;3249;42.690;23.260;2023-01-08T07:08:50;94889.97;;;0.51;100.00
6433;BME280;3249;42.690;23.260;2023-01-08T07:11:22;94894.16;;;0.33;100.00
6433;BME280;3249;42.690;23.260;2023-01-08T07:13:50;94900.06;;;0.60;100.00
6433;BME280;3249;42.690;23.260;2023-01-08T07:16:19;94901.59;;;0.71;100.00
6433;BME280;3249;42.690;23.260;2023-01-08T07:18:48;94901.50;;;0.90;100.00
6433;BME280;3249;42.690;23.260;2023-01-08T07:21:17;94870.06;;;0.83;100.00
6433;BME280;3249;42.690;23.260;2023-01-08T07:23:47;94904.19;;;1.23;100.00
6433;BME280;3249;42.690;23.260;2023-01-08T07:26:16;94906.84;;;1.31;100.00
6433;BME280;3249;42.690;23.260;2023-01-08T07:28:48;94914.06;;;1.44;100.00
6433;BME280;3249;42.690;23.260;2023-01-08T07:31:17;94914.34;;;1.58;100.00
6433;BME280;3249;42.690;23.260;2023-01-08T07:33:45;94910.34;;;1.21;100.00
6433;BME280;3249;42.690;23.260;2023-01-08T07:36:15;94915.94;;;1.42;100.00
6433;BME280;3249;42.690;23.260;2023-01-08T07:38:47;94915.50;;;1.64;100.00
6433;BME280;3249;42.690;23.260;2023-01-08T07:41:17;94915.56;;;1.72;100.00
6433;BME280;3249;42.690;23.260;2023-01-08T07:43:48;94913.81;;;1.90;100.00
6433;BME280;3249;42.690;23.260;2023-01-08T07:46:17;94916.06;;;1.93;100.00
6433;BME280;3249;42.690;23.260;2023-01-08T07:48:47;94909.31;;;1.84;100.00
6433;BME280;3249;42.690;23.260;2023-01-08T07:51:16;94912.38;;;2.13;100.00
6433;BME280;3249;42.690;23.260;2023-01-08T07:53:45;94912.53;;;2.11;100.00
6433;BME280;3249;42.690;23.260;2023-01-08T07:56:16;94914.50;;;2.25;100.00
6433;BME280;3249;42.690;23.260;2023-01-08T07:58:45;94921.53;;;2.31;100.00
6433;BME280;3249;42.690;23.260;2023-01-08T08:01:16;94920.94;;;2.45;100.00
6433;BME280;3249;42.690;23.260;2023-01-08T08:03:46;94918.25;;;2.47;100.00
6433;BME280;3249;42.690;23.260;2023-01-08T08:06:15;94922.53;;;2.46;100.00
6433;BME280;3249;42.690;23.260;2023-01-08T08:08:44;94926.06;;;2.53;100.00
6433;BME280;3249;42.690;23.260;2023-01-08T08:11:13;94921.22;;;2.68;100.00
6433;BME280;3249;42.690;23.260;2023-01-08T08:13:42;94921.34;;;2.58;100.00
6433;BME280;3249;42.690;23.260;2023-01-08T08:16:12;94923.47;;;2.71;100.00
6433;BME280;3249;42.690;23.260;2023-01-08T08:18:43;94918.91;;;2.82;100.00
6433;BME280;3249;42.690;23.260;2023-01-08T08:21:12;94926.25;;;3.01;100.00
6433;BME280;3249;42.690;23.260;2023-01-08T08:23:41;94923.28;;;3.14;100.00
6433;BME280;3249;42.690;23.260;2023-01-08T08:26:10;94923.97;;;3.32;100.00
6433;BME280;3249;42.690;23.260;2023-01-08T08:28:39;94919.22;;;3.37;100.00
6433;BME280;3249;42.690;23.260;2023-01-08T08:31:09;94923.66;;;3.43;100.00
6433;BME280;3249;42.690;23.260;2023-01-08T08:33:38;94926.22;;;3.59;100.00
6433;BME280;3249;42.690;23.260;2023-01-08T08:36:10;94927.03;;;3.67;100.00
6433;BME280;3249;42.690;23.260;2023-01-08T08:38:39;94932.13;;;3.59;100.00
6433;BME280;3249;42.690;23.260;2023-01-08T08:41:10;94932.53;;;3.31;100.00
6433;BME280;3249;42.690;23.260;2023-01-08T08:43:39;94933.84;;;3.59;100.00
6433;BME280;3249;42.690;23.260;2023-01-08T08:46:08;94931.81;;;3.86;100.00
6433;BME280;3249;42.690;23.260;2023-01-08T08:48:37;94895.53;;;3.76;100.00
6433;BME280;3249;42.690;23.260;2023-01-08T08:51:06;94921.47;;;3.56;100.00
6433;BME280;3249;42.690;23.260;2023-01-08T08:53:38;94925.28;;;3.60;100.00
6433;BME280;3249;42.690;23.260;2023-01-08T08:56:07;94922.41;;;3.47;100.00
6433;BME280;3249;42.690;23.260;2023-01-08T08:58:36;94926.22;;;3.51;100.00
6433;BME280;3249;42.690;23.260;2023-01-08T09:01:06;94925.28;;;3.60;100.00
6433;BME280;3249;42.690;23.260;2023-01-08T09:03:35;94922.91;;;3.50;100.00
6433;BME280;3249;42.690;23.260;2023-01-08T09:06:05;94916.84;;;3.43;100.00
6433;BME280;3249;42.690;23.260;2023-01-08T09:08:38;94918.09;;;3.39;100.00
6433;BME280;3249;42.690;23.260;2023-01-08T09:11:07;94888.03;;;3.35;100.00
6433;BME280;3249;42.690;23.260;2023-01-08T09:13:36;94921.00;;;3.76;100.00
6433;BME280;3249;42.690;23.260;2023-01-08T09:16:05;94916.38;;;3.96;100.00
6433;BME280;3249;42.690;23.260;2023-01-08T09:18:35;94914.47;;;3.82;100.00
6433;BME280;3249;42.690;23.260;2023-01-08T09:21:04;94891.09;;;3.70;100.00
6433;BME280;3249;42.690;23.260;2023-01-08T09:23:34;94910.47;;;4.11;100.00
6433;BME280;3249;42.690;23.260;2023-01-08T09:26:06;94914.59;;;4.20;100.00
6433;BME280;3249;42.690;23.260;2023-01-08T09:28:35;94907.88;;;4.35;100.00
6433;BME280;3249;42.690;23.260;2023-01-08T09:31:04;94905.44;;;4.50;100.00
6433;BME280;3249;42.690;23.260;2023-01-08T09:33:33;94905.75;;;4.47;100.00
6433;BME280;3249;42.690;23.260;2023-01-08T09:36:09;94901.41;;;4.71;100.00
6433;BME280;3249;42.690;23.260;2023-01-08T09:38:38;94872.56;;;4.71;100.00
6433;BME280;3249;42.690;23.260;2023-01-08T09:41:15;94891.28;;;4.86;100.00
6433;BME280;3249;42.690;23.260;2023-01-08T09:43:47;94883.19;;;4.82;100.00
6433;BME280;3249;42.690;23.260;2023-01-08T09:46:19;94890.47;;;5.24;100.00
6433;BME280;3249;42.690;23.260;2023-01-08T09:48:50;94892.16;;;5.32;100.00
6433;BME280;3249;42.690;23.260;2023-01-08T09:51:20;94885.16;;;5.56;100.00
6433;BME280;3249;42.690;23.260;2023-01-08T09:53:54;94869.97;;;5.77;100.00
6433;BME280;3249;42.690;23.260;2023-01-08T09:56:26;94857.69;;;5.81;100.00
6433;BME280;3249;42.690;23.260;2023-01-08T09:58:58;94863.38;;;6.05;100.00
6433;BME280;3249;42.690;23.260;2023-01-08T10:01:28;94862.50;;;6.13;100.00
6433;BME280;3249;42.690;23.260;2023-01-08T10:04:03;94860.91;;;6.12;100.00
6433;BME280;3249;42.690;23.260;2023-01-08T10:06:34;94865.66;;;6.00;100.00
6433;BME280;3249;42.690;23.260;2023-01-08T10:09:03;94848.81;;;5.91;100.00
6433;BME280;3249;42.690;23.260;2023-01-08T10:11:38;94855.25;;;5.87;100.00
6433;BME280;3249;42.690;23.260;2023-01-08T10:14:18;94851.63;;;5.96;100.00
6433;BME280;3249;42.690;23.260;2023-01-08T10:16:52;94850.44;;;6.21;100.00
6433;BME280;3249;42.690;23.260;2023-01-08T10:19:23;94852.66;;;6.39;100.00
6433;BME280;3249;42.690;23.260;2023-01-08T10:21:52;94846.47;;;6.62;100.00
6433;BME280;3249;42.690;23.260;2023-01-08T10:24:32;94820.19;;;5.96;100.00
6433;BME280;3249;42.690;23.260;2023-01-08T10:27:08;94835.00;;;6.15;100.00
6433;BME280;3249;42.690;23.260;2023-01-08T10:29:40;94826.91;;;6.40;100.00
6433;BME280;3249;42.690;23.260;2023-01-08T10:32:14;94830.34;;;6.18;100.00
6433;BME280;3249;42.690;23.260;2023-01-08T10:34:45;94820.13;;;6.47;100.00
6433;BME280;3249;42.690;23.260;2023-01-08T10:37:24;94826.53;;;6.58;100.00
6433;BME280;3249;42.690;23.260;2023-01-08T10:39:55;94821.16;;;6.67;100.00
6433;BME280;3249;42.690;23.260;2023-01-08T10:42:33;94812.53;;;6.39;100.00
6433;BME280;3249;42.690;23.260;2023-01-08T10:45:05;94807.69;;;6.30;100.00
6433;BME280;3249;42.690;23.260;2023-01-08T10:47:45;94809.53;;;6.50;100.00
6433;BME280;3249;42.690;23.260;2023-01-08T10:50:19;94803.16;;;6.75;100.00
6433;BME280;3249;42.690;23.260;2023-01-08T10:52:54;94792.56;;;6.78;99.44
6433;BME280;3249;42.690;23.260;2023-01-08T10:55:25;94791.28;;;6.89;98.98
6433;BME280;3249;42.690;23.260;2023-01-08T10:58:11;94781.19;;;7.02;96.93
6433;BME280;3249;42.690;23.260;2023-01-08T11:00:41;94790.56;;;6.95;97.92
6433;BME280;3249;42.690;23.260;2023-01-08T11:03:21;94789.38;;;6.76;99.63
6433;BME280;3249;42.690;23.260;2023-01-08T11:05:52;94783.97;;;6.86;100.00
6433;BME280;3249;42.690;23.260;2023-01-08T11:08:22;94754.78;;;6.80;99.54
6433;BME280;3249;42.690;23.260;2023-01-08T11:10:53;94780.25;;;6.88;99.57
6433;BME280;3249;42.690;23.260;2023-01-08T11:13:26;94782.47;;;6.91;99.93
6433;BME280;3249;42.690;23.260;2023-01-08T11:16:01;94782.69;;;6.75;100.00
6433;BME280;3249;42.690;23.260;2023-01-08T11:18:40;94787.06;;;6.81;100.00
6433;BME280;3249;42.690;23.260;2023-01-08T11:21:18;94775.38;;;6.93;99.88
6433;BME280;3249;42.690;23.260;2023-01-08T11:24:00;94777.00;;;7.15;97.25
6433;BME280;3249;42.690;23.260;2023-01-08T11:26:31;94768.09;;;7.11;97.21
6433;BME280;3249;42.690;23.260;2023-01-08T11:29:10;94772.97;;;7.27;97.18
6433;BME280;3249;42.690;23.260;2023-01-08T11:31:46;94770.00;;;7.24;96.78
6433;BME280;3249;42.690;23.260;2023-01-08T11:34:21;94769.19;;;7.23;96.60
6433;BME280;3249;42.690;23.260;2023-01-08T11:37:00;94770.59;;;7.26;96.56
6433;BME280;3249;42.690;23.260;2023-01-08T11:39:32;94760.91;;;7.21;99.19
6433;BME280;3249;42.690;23.260;2023-01-08T11:42:11;94758.56;;;7.47;96.71
6433;BME280;3249;42.690;23.260;2023-01-08T11:44:53;94758.56;;;7.47;96.05
6433;BME280;3249;42.690;23.260;2023-01-08T11:47:35;94751.53;;;7.56;94.32
6433;BME280;3249;42.690;23.260;2023-01-08T11:50:13;94733.44;;;7.57;93.45
6433;BME280;3249;42.690;23.260;2023-01-08T11:53:01;94731.75;;;7.71;92.52
6433;BME280;3249;42.690;23.260;2023-01-08T11:55:50;94743.31;;;7.94;91.53
6433;BME280;3249;42.690;23.260;2023-01-08T11:58:32;94728.44;;;8.11;88.08
6433;BME280;3249;42.690;23.260;2023-01-08T12:01:22;94748.06;;;8.31;85.98
6433;BME280;3249;42.690;23.260;2023-01-08T12:04:12;94743.31;;;8.28;85.86
6433;BME280;3249;42.690;23.260;2023-01-08T12:06:53;94737.03;;;8.31;84.27
6433;BME280;3249;42.690;23.260;2023-01-08T12:09:32;94728.72;;;8.29;87.61
6433;BME280;3249;42.690;23.260;2023-01-08T12:12:11;94719.66;;;8.26;84.99
6433;BME280;3249;42.690;23.260;2023-01-08T12:14:50;94723.53;;;8.56;83.46
6433;BME280;3249;42.690;23.260;2023-01-08T12:17:51;94729.47;;;8.70;81.32
6433;BME280;3249;42.690;23.260;2023-01-08T12:20:29;94726.50;;;8.66;82.59
6433;BME280;3249;42.690;23.260;2023-01-08T12:23:12;94720.72;;;8.51;83.07
6433;BME280;3249;42.690;23.260;2023-01-08T12:26:08;94714.69;;;8.72;81.29
6433;BME280;3249;42.690;23.260;2023-01-08T12:35:02;94719.06;;;8.84;77.44
6433;BME280;3249;42.690;23.260;2023-01-08T12:37:37;94709.19;;;8.81;78.63
6433;BME280;3249;42.690;23.260;2023-01-08T12:40:13;94702.47;;;8.80;77.00
6433;BME280;3249;42.690;23.260;2023-01-08T12:42:44;94688.19;;;8.52;79.70
6433;BME280;3249;42.690;23.260;2023-01-08T12:45:19;94707.16;;;8.70;79.41
6433;BME280;3249;42.690;23.260;2023-01-08T12:47:53;94708.00;;;8.90;78.05
6433;BME280;3249;42.690;23.260;2023-01-08T12:50:50;94699.72;;;9.01;77.00
6433;BME280;3249;42.690;23.260;2023-01-08T12:53:26;94701.31;;;9.09;76.40
6433;BME280;3249;42.690;23.260;2023-01-08T12:56:03;94682.94;;;9.05;74.78
6433;BME280;3249;42.690;23.260;2023-01-08T12:58:42;94703.69;;;9.23;73.99
6433;BME280;3249;42.690;23.260;2023-01-08T13:01:26;94678.81;;;9.11;73.27
6433;BME280;3249;42.690;23.260;2023-01-08T13:03:58;94693.03;;;9.13;74.67
6433;BME280;3249;42.690;23.260;2023-01-08T13:06:31;94679.59;;;9.18;74.25
6433;BME280;3249;42.690;23.260;2023-01-08T13:09:01;94680.19;;;9.13;75.11
6433;BME280;3249;42.690;23.260;2023-01-08T13:11:32;94691.25;;;9.20;74.90
6433;BME280;3249;42.690;23.260;2023-01-08T13:14:04;94663.97;;;9.19;73.15
6433;BME280;3249;42.690;23.260;2023-01-08T13:16:37;94689.47;;;9.40;72.14
6433;BME280;3249;42.690;23.260;2023-01-08T13:19:22;94686.31;;;9.25;72.87
6433;BME280;3249;42.690;23.260;2023-01-08T13:21:56;94685.31;;;9.13;73.75
6433;BME280;3249;42.690;23.260;2023-01-08T13:24:30;94687.69;;;9.28;73.22
6433;BME280;3249;42.690;23.260;2023-01-08T13:27:11;94682.75;;;9.39;71.75
6433;BME280;3249;42.690;23.260;2023-01-08T13:29:50;94681.16;;;9.38;71.36
6433;BME280;3249;42.690;23.260;2023-01-08T13:32:25;94684.34;;;9.40;71.46
6433;BME280;3249;42.690;23.260;2023-01-08T13:35:08;94680.38;;;9.44;71.40
6433;BME280;3249;42.690;23.260;2023-01-08T13:37:44;94683.13;;;9.49;71.30
6433;BME280;3249;42.690;23.260;2023-01-08T13:40:37;94677.81;;;9.51;70.71
6433;BME280;3249;42.690;23.260;2023-01-08T13:43:12;94673.44;;;9.45;71.49
6433;BME280;3249;42.690;23.260;2023-01-08T13:45:41;94681.78;;;9.40;71.38